オスロ の空港の天気 - METARとTAF

オスロ空港 ( ENGM / OSL ) - ノルウェー アーケシュフース県オスロ
飛行場実況気象(Metar)
観測時間06/25 10:20 CEST (06/25 08:20 UTC)
風向・風速南 5m/s
視程10km以上
天気現象
少しの雲 雲底高度 1190m
気温14℃
湿度51%
気圧992hPa
METARENGM 250820Z 19009KT 160V230 9999 FEW039 14/04 Q0992 NOSIG
過去の天気等 Google飛行場航空写真 Wunderground天気予報

過去48時間のMETAR

飛行場予報(TAF)
データがありません